Katsou — FI9145 — position and weather

sailwx.info

Track history (hours):
 
Tides and Currents Weather Stations Pressure Air Temp Water Temp Dewpoint Dewpoint Depression Visibility Wind Speed Wind Dir Waves Ship Positions

Katsou

Last reported at 2018-Jul-16 11:55 UTC. Time now 2018-Jul-17 05:50 UTC.
Position N 43°26' W 001°44'.

Length 13 m.

Type: Sailing vessel. MMSI: 227734820.

Date/timePositionNaut miles runAvg speedWind from/ knotsBaromVisibWave heightAir tempDewpointWater temp
2018-Jul-16 11:55N 43°26' W 001°44'2 4.0
2018-Jul-16 11:30N 43°27' W 001°43'2 2.9
2018-Jul-16 10:51N 43°29' W 001°42'1 3.8
2018-Jul-16 10:30N 43°28' W 001°42'2 4.2
2018-Jul-16 09:59N 43°25' W 001°42'2 0.0
2018-Jul-14 18:13N 43°24' W 001°41'2 7.1
2018-Jul-14 17:57N 43°26' W 001°40'3 7.0
2018-Jul-14 17:30N 43°29' W 001°40'4 7.2
2018-Jul-14 16:59N 43°33' W 001°40'3 7.2
2018-Jul-14 16:30N 43°36' W 001°39'4 7.4
2018-Jul-14 15:59N 43°40' W 001°38'5 4.7
2018-Jul-14 14:50N 43°45' W 001°35'2 4.3
2018-Jul-14 14:27N 43°46' W 001°34'4 4.2
2018-Jul-14 13:30N 43°50' W 001°34'2 4.1
2018-Jul-14 12:58N 43°52' W 001°34'2 4.6
2018-Jul-14 12:30N 43°55' W 001°34'3 5.0
2018-Jul-14 11:59N 43°57' W 001°34'3 5.1
2018-Jul-14 11:18N 44°01' W 001°34'2 6.7
2018-Jul-14 10:58N 44°03' W 001°34'3 7.2
2018-Jul-14 10:29N 44°06' W 001°33'4 7.0
2018-Jul-14 09:58N 44°10' W 001°32'3 7.0
2018-Jul-14 09:30N 44°13' W 001°32'4 7.2
2018-Jul-14 09:00N 44°17' W 001°31'4 7.3
2018-Jul-14 08:26N 44°21' W 001°30'4 7.3
2018-Jul-14 07:57N 44°24' W 001°29'3 6.8
2018-Jul-14 07:30N 44°27' W 001°29'3 6.9
2018-Jul-14 07:00N 44°29' W 001°25'4 7.1
2018-Jul-14 06:30N 44°31' W 001°21'4 7.1
2018-Jul-14 06:00N 44°33' W 001°17'8 0.3
2018-Jul-12 22:48N 44°40' W 001°09'0 0.0
2018-Jul-12 22:25N 44°40' W 001°09'0 0.0
2018-Jul-12 21:59N 44°40' W 001°09'0 0.0
2018-Jul-12 21:29N 44°40' W 001°09'0 0.0
2018-Jul-12 20:58N 44°40' W 001°09'0 0.0
2018-Jul-12 20:30N 44°40' W 001°09'0 0.0
2018-Jul-12 19:59N 44°40' W 001°09'0 0.0
2018-Jul-12 16:24N 44°40' W 001°09'0 0.0
2018-Jul-12 16:00N 44°40' W 001°09'0 0.1
2018-Jul-12 15:30N 44°40' W 001°09'1 2.6
2018-Jul-12 15:00N 44°40' W 001°10'4 7.4
2018-Jul-12 14:30N 44°37' W 001°14'4 8.0
2018-Jul-12 14:00N 44°34' W 001°17'1 1.1
2018-Jul-12 13:27N 44°33' W 001°17'2 2.9
2018-Jul-12 12:50N 44°32' W 001°19'0 1.1
2018-Jul-12 12:28N 44°32' W 001°18'1 2.3
2018-Jul-12 12:00N 44°32' W 001°17'1 1.6
2018-Jul-12 11:25N 44°32' W 001°17'2 3.6
2018-Jul-12 10:59N 44°33' W 001°18'2 3.2
2018-Jul-12 10:30N 44°34' W 001°19'1 2.4
2018-Jul-12 10:00N 44°36' W 001°19'1 3.0
2018-Jul-12 09:30N 44°37' W 001°20'1 2.6
2018-Jul-12 09:00N 44°38' W 001°21'1 2.7
2018-Jul-12 08:30N 44°39' W 001°21'2 3.5
2018-Jul-12 08:00N 44°41' W 001°22'2 4.3
2018-Jul-12 07:28N 44°43' W 001°23'2 4.8
2018-Jul-12 06:59N 44°45' W 001°24'78 6.5
2018-Jul-11 18:58N 46°03' W 001°30'3 6.3
2018-Jul-11 18:30N 46°05' W 001°27'3 5.9
2018-Jul-11 18:00N 46°07' W 001°23'3 7.0
2018-Jul-11 17:30N 46°07' W 001°18'3 6.0
2018-Jul-11 17:00N 46°07' W 001°14'3 6.2
2018-Jul-11 16:30N 46°09' W 001°10'0 0.2
2018-Jul-11 16:00N 46°09' W 001°10'0 0.0
2018-Jul-11 15:29N 46°09' W 001°10'0 0.0
2018-Jul-11 14:58N 46°09' W 001°10'0 0.0
2018-Jul-11 14:29N 46°09' W 001°10'0 0.0
2018-Jul-11 13:59N 46°09' W 001°10'0 0.0
2018-Jul-11 13:29N 46°09' W 001°10'0 0.0
2018-Jul-11 13:00N 46°09' W 001°10'0 0.0
2018-Jul-11 12:30N 46°09' W 001°10'0 0.0
2018-Jul-11 12:00N 46°09' W 001°10'0 0.0
2018-Jul-11 11:28N 46°09' W 001°10'0 0.0
2018-Jul-11 11:00N 46°09' W 001°10'0 0.0
2018-Jul-11 10:29N 46°09' W 001°10'0 0.0
2018-Jul-11 10:00N 46°09' W 001°10'0 0.0
2018-Jul-11 09:30N 46°09' W 001°10'0 0.0
2018-Jul-11 00:48N 46°09' W 001°10'0 0.0
2018-Jul-11 00:28N 46°09' W 001°10'0 0.0
2018-Jul-11 00:00N 46°09' W 001°10'0 0.0
2018-Jul-10 23:30N 46°09' W 001°10'0 0.0
2018-Jul-10 23:00N 46°09' W 001°10'0 0.0
2018-Jul-10 22:30N 46°09' W 001°10'0 0.0
2018-Jul-10 22:00N 46°09' W 001°10'0 0.0
2018-Jul-10 21:30N 46°09' W 001°10'0 0.0
2018-Jul-10 21:00N 46°09' W 001°10'0 0.0
2018-Jul-10 20:30N 46°09' W 001°10'0 0.0
2018-Jul-10 20:00N 46°09' W 001°10'0 0.0
2018-Jul-10 19:28N 46°09' W 001°10'0 0.0
2018-Jul-10 18:58N 46°09' W 001°10'0 0.0
2018-Jul-10 18:30N 46°09' W 001°10'0 0.0
2018-Jul-10 18:00N 46°09' W 001°10'0 0.0
2018-Jul-10 17:30N 46°09' W 001°10'0 0.0
2018-Jul-10 16:59N 46°09' W 001°10'0 0.0
2018-Jul-10 16:29N 46°09' W 001°10'0 0.0
2018-Jul-10 15:59N 46°09' W 001°10'0 0.0
2018-Jul-10 15:30N 46°09' W 001°10'0 0.0
2018-Jul-10 15:00N 46°09' W 001°10'1 2.3
2018-Jul-10 14:30N 46°08' W 001°12'3 5.6
2018-Jul-10 14:00N 46°10' W 001°15'4 7.3
2018-Jul-10 13:30N 46°13' W 001°19'4 7.5
2018-Jul-10 13:00N 46°15' W 001°23'11 7.7
2018-Jul-10 11:32N 46°21' W 001°37'0 7.4
2018-Jul-10 11:29N 46°22' W 001°37'4 7.4
2018-Jul-10 11:00N 46°23' W 001°42'3 5.9
2018-Jul-10 10:30N 46°25' W 001°45'4 7.1
2018-Jul-10 10:00N 46°28' W 001°49'3 7.1
2018-Jul-10 09:30N 46°30' W 001°53'4 6.9
2018-Jul-10 08:59N 46°32' W 001°57'67 1.8
2018-Jul-08 19:15N 47°21' W 003°04'2 7.8
2018-Jul-08 19:00N 47°22' W 003°06'4 8.0
2018-Jul-08 18:30N 47°25' W 003°11'3 6.5
2018-Jul-08 18:00N 47°27' W 003°14'2 4.1
2018-Jul-08 17:30N 47°29' W 003°16'2 4.2
2018-Jul-08 17:00N 47°31' W 003°18'2 4.0
2018-Jul-08 16:30N 47°32' W 003°20'3 5.5
2018-Jul-08 16:00N 47°34' W 003°23'3 5.4
2018-Jul-08 15:25N 47°36' W 003°26'1 2.3
2018-Jul-08 15:00N 47°37' W 003°26'0 0.0
2018-Jul-08 14:30N 47°37' W 003°26'0 0.0
2018-Jul-08 12:39N 47°37' W 003°26'0 0.2
2018-Jul-08 12:30N 47°37' W 003°26'0 0.1
2018-Jul-08 12:00N 47°37' W 003°26'0 0.0
2018-Jul-08 11:30N 47°37' W 003°26'0 0.0
2018-Jul-08 11:00N 47°37' W 003°26'0 0.0
2018-Jul-08 10:30N 47°37' W 003°26'0 0.0
2018-Jul-07 18:49N 47°37' W 003°26'0 1.4
2018-Jul-07 18:28N 47°37' W 003°26'4 3.1
2018-Jul-07 17:03N 47°40' W 003°31'1 6.3
2018-Jul-07 16:56N 47°41' W 003°30'1 3.0
2018-Jul-07 16:29N 47°40' W 003°29'1 2.7
2018-Jul-07 16:00N 47°40' W 003°27'2 3.2
2018-Jul-07 15:30N 47°41' W 003°25'2 3.1
2018-Jul-07 15:00N 47°42' W 003°23'1 2.9
2018-Jul-07 14:30N 47°43' W 003°22'1 1.3
2018-Jul-07 14:00N 47°43' W 003°22'0 0.4
2018-Jul-07 13:30N 47°43' W 003°22'0 0.0
2018-Jul-07 13:00N 47°43' W 003°22'0 0.1
2018-Jul-07 12:26N 47°43' W 003°22'0 0.1
2018-Jul-07 12:00N 47°43' W 003°22'0 0.0
2018-Jul-07 11:30N 47°43' W 003°22'0 0.0
2018-Jul-07 11:00N 47°43' W 003°22'0 0.0
2018-Jul-07 10:30N 47°43' W 003°22'0 0.0
2018-Jul-07 10:00N 47°43' W 003°22'0 0.0
2018-Jul-07 09:30N 47°43' W 003°22'  
Track history (hours):
 
Tides and Currents Weather Stations Pressure Air Temp Water Temp Dewpoint Dewpoint Depression Visibility Wind Speed Wind Dir Waves Ship Positions

Katsou

Last reported at 2018-Jul-16 11:55 UTC. Time now 2018-Jul-17 05:50 UTC.
Position N 43°26' W 001°44'.

Length 13 m.

Type: Sailing vessel. MMSI: 227734820.

Date/timePositionNaut miles runAvg speedWind from/ knotsBaromVisibWave heightAir tempDewpointWater temp
2018-Jul-16 11:55N 43°26' W 001°44'2 4.0
2018-Jul-16 11:30N 43°27' W 001°43'2 2.9
2018-Jul-16 10:51N 43°29' W 001°42'1 3.8
2018-Jul-16 10:30N 43°28' W 001°42'2 4.2
2018-Jul-16 09:59N 43°25' W 001°42'2 0.0
2018-Jul-14 18:13N 43°24' W 001°41'2 7.1
2018-Jul-14 17:57N 43°26' W 001°40'3 7.0
2018-Jul-14 17:30N 43°29' W 001°40'4 7.2
2018-Jul-14 16:59N 43°33' W 001°40'3 7.2
2018-Jul-14 16:30N 43°36' W 001°39'4 7.4
2018-Jul-14 15:59N 43°40' W 001°38'5 4.7
2018-Jul-14 14:50N 43°45' W 001°35'2 4.3
2018-Jul-14 14:27N 43°46' W 001°34'4 4.2
2018-Jul-14 13:30N 43°50' W 001°34'2 4.1
2018-Jul-14 12:58N 43°52' W 001°34'2 4.6
2018-Jul-14 12:30N 43°55' W 001°34'3 5.0
2018-Jul-14 11:59N 43°57' W 001°34'3 5.1
2018-Jul-14 11:18N 44°01' W 001°34'2 6.7
2018-Jul-14 10:58N 44°03' W 001°34'3 7.2
2018-Jul-14 10:29N 44°06' W 001°33'4 7.0
2018-Jul-14 09:58N 44°10' W 001°32'3 7.0
2018-Jul-14 09:30N 44°13' W 001°32'4 7.2
2018-Jul-14 09:00N 44°17' W 001°31'4 7.3
2018-Jul-14 08:26N 44°21' W 001°30'4 7.3
2018-Jul-14 07:57N 44°24' W 001°29'3 6.8
2018-Jul-14 07:30N 44°27' W 001°29'3 6.9
2018-Jul-14 07:00N 44°29' W 001°25'4 7.1
2018-Jul-14 06:30N 44°31' W 001°21'4 7.1
2018-Jul-14 06:00N 44°33' W 001°17'8 0.3
2018-Jul-12 22:48N 44°40' W 001°09'0 0.0
2018-Jul-12 22:25N 44°40' W 001°09'0 0.0
2018-Jul-12 21:59N 44°40' W 001°09'0 0.0
2018-Jul-12 21:29N 44°40' W 001°09'0 0.0
2018-Jul-12 20:58N 44°40' W 001°09'0 0.0
2018-Jul-12 20:30N 44°40' W 001°09'0 0.0
2018-Jul-12 19:59N 44°40' W 001°09'0 0.0
2018-Jul-12 16:24N 44°40' W 001°09'0 0.0
2018-Jul-12 16:00N 44°40' W 001°09'0 0.1
2018-Jul-12 15:30N 44°40' W 001°09'1 2.6
2018-Jul-12 15:00N 44°40' W 001°10'4 7.4
2018-Jul-12 14:30N 44°37' W 001°14'4 8.0
2018-Jul-12 14:00N 44°34' W 001°17'1 1.1
2018-Jul-12 13:27N 44°33' W 001°17'2 2.9
2018-Jul-12 12:50N 44°32' W 001°19'0 1.1
2018-Jul-12 12:28N 44°32' W 001°18'1 2.3
2018-Jul-12 12:00N 44°32' W 001°17'1 1.6
2018-Jul-12 11:25N 44°32' W 001°17'2 3.6
2018-Jul-12 10:59N 44°33' W 001°18'2 3.2
2018-Jul-12 10:30N 44°34' W 001°19'1 2.4
2018-Jul-12 10:00N 44°36' W 001°19'1 3.0
2018-Jul-12 09:30N 44°37' W 001°20'1 2.6
2018-Jul-12 09:00N 44°38' W 001°21'1 2.7
2018-Jul-12 08:30N 44°39' W 001°21'2 3.5
2018-Jul-12 08:00N 44°41' W 001°22'2 4.3
2018-Jul-12 07:28N 44°43' W 001°23'2 4.8
2018-Jul-12 06:59N 44°45' W 001°24'78 6.5
2018-Jul-11 18:58N 46°03' W 001°30'3 6.3
2018-Jul-11 18:30N 46°05' W 001°27'3 5.9
2018-Jul-11 18:00N 46°07' W 001°23'3 7.0
2018-Jul-11 17:30N 46°07' W 001°18'3 6.0
2018-Jul-11 17:00N 46°07' W 001°14'3 6.2
2018-Jul-11 16:30N 46°09' W 001°10'0 0.2
2018-Jul-11 16:00N 46°09' W 001°10'0 0.0
2018-Jul-11 15:29N 46°09' W 001°10'0 0.0
2018-Jul-11 14:58N 46°09' W 001°10'0 0.0
2018-Jul-11 14:29N 46°09' W 001°10'0 0.0
2018-Jul-11 13:59N 46°09' W 001°10'0 0.0
2018-Jul-11 13:29N 46°09' W 001°10'0 0.0
2018-Jul-11 13:00N 46°09' W 001°10'0 0.0
2018-Jul-11 12:30N 46°09' W 001°10'0 0.0
2018-Jul-11 12:00N 46°09' W 001°10'0 0.0
2018-Jul-11 11:28N 46°09' W 001°10'0 0.0
2018-Jul-11 11:00N 46°09' W 001°10'0 0.0
2018-Jul-11 10:29N 46°09' W 001°10'0 0.0
2018-Jul-11 10:00N 46°09' W 001°10'0 0.0
2018-Jul-11 09:30N 46°09' W 001°10'0 0.0
2018-Jul-11 00:48N 46°09' W 001°10'0 0.0
2018-Jul-11 00:28N 46°09' W 001°10'0 0.0
2018-Jul-11 00:00N 46°09' W 001°10'0 0.0
2018-Jul-10 23:30N 46°09' W 001°10'0 0.0
2018-Jul-10 23:00N 46°09' W 001°10'0 0.0
2018-Jul-10 22:30N 46°09' W 001°10'0 0.0
2018-Jul-10 22:00N 46°09' W 001°10'0 0.0
2018-Jul-10 21:30N 46°09' W 001°10'0 0.0
2018-Jul-10 21:00N 46°09' W 001°10'0 0.0
2018-Jul-10 20:30N 46°09' W 001°10'0 0.0
2018-Jul-10 20:00N 46°09' W 001°10'0 0.0
2018-Jul-10 19:28N 46°09' W 001°10'0 0.0
2018-Jul-10 18:58N 46°09' W 001°10'0 0.0
2018-Jul-10 18:30N 46°09' W 001°10'0 0.0
2018-Jul-10 18:00N 46°09' W 001°10'0 0.0
2018-Jul-10 17:30N 46°09' W 001°10'0 0.0
2018-Jul-10 16:59N 46°09' W 001°10'0 0.0
2018-Jul-10 16:29N 46°09' W 001°10'0 0.0
2018-Jul-10 15:59N 46°09' W 001°10'0 0.0
2018-Jul-10 15:30N 46°09' W 001°10'0 0.0
2018-Jul-10 15:00N 46°09' W 001°10'1 2.3
2018-Jul-10 14:30N 46°08' W 001°12'3 5.6
2018-Jul-10 14:00N 46°10' W 001°15'4 7.3
2018-Jul-10 13:30N 46°13' W 001°19'4 7.5
2018-Jul-10 13:00N 46°15' W 001°23'11 7.7
2018-Jul-10 11:32N 46°21' W 001°37'0 7.4
2018-Jul-10 11:29N 46°22' W 001°37'4 7.4
2018-Jul-10 11:00N 46°23' W 001°42'3 5.9
2018-Jul-10 10:30N 46°25' W 001°45'4 7.1
2018-Jul-10 10:00N 46°28' W 001°49'3 7.1
2018-Jul-10 09:30N 46°30' W 001°53'4 6.9
2018-Jul-10 08:59N 46°32' W 001°57'67 1.8
2018-Jul-08 19:15N 47°21' W 003°04'2 7.8
2018-Jul-08 19:00N 47°22' W 003°06'4 8.0
2018-Jul-08 18:30N 47°25' W 003°11'3 6.5
2018-Jul-08 18:00N 47°27' W 003°14'2 4.1
2018-Jul-08 17:30N 47°29' W 003°16'2 4.2
2018-Jul-08 17:00N 47°31' W 003°18'2 4.0
2018-Jul-08 16:30N 47°32' W 003°20'3 5.5
2018-Jul-08 16:00N 47°34' W 003°23'3 5.4
2018-Jul-08 15:25N 47°36' W 003°26'1 2.3
2018-Jul-08 15:00N 47°37' W 003°26'0 0.0
2018-Jul-08 14:30N 47°37' W 003°26'0 0.0
2018-Jul-08 12:39N 47°37' W 003°26'0 0.2
2018-Jul-08 12:30N 47°37' W 003°26'0 0.1
2018-Jul-08 12:00N 47°37' W 003°26'0 0.0
2018-Jul-08 11:30N 47°37' W 003°26'0 0.0
2018-Jul-08 11:00N 47°37' W 003°26'0 0.0
2018-Jul-08 10:30N 47°37' W 003°26'0 0.0
2018-Jul-07 18:49N 47°37' W 003°26'0 1.4
2018-Jul-07 18:28N 47°37' W 003°26'4 3.1
2018-Jul-07 17:03N 47°40' W 003°31'1 6.3
2018-Jul-07 16:56N 47°41' W 003°30'1 3.0
2018-Jul-07 16:29N 47°40' W 003°29'1 2.7
2018-Jul-07 16:00N 47°40' W 003°27'2 3.2
2018-Jul-07 15:30N 47°41' W 003°25'2 3.1
2018-Jul-07 15:00N 47°42' W 003°23'1 2.9
2018-Jul-07 14:30N 47°43' W 003°22'1 1.3
2018-Jul-07 14:00N 47°43' W 003°22'0 0.4
2018-Jul-07 13:30N 47°43' W 003°22'0 0.0
2018-Jul-07 13:00N 47°43' W 003°22'0 0.1
2018-Jul-07 12:26N 47°43' W 003°22'0 0.1
2018-Jul-07 12:00N 47°43' W 003°22'0 0.0
2018-Jul-07 11:30N 47°43' W 003°22'0 0.0
2018-Jul-07 11:00N 47°43' W 003°22'0 0.0
2018-Jul-07 10:30N 47°43' W 003°22'0 0.0
2018-Jul-07 10:00N 47°43' W 003°22'0 0.0
2018-Jul-07 09:30N 47°43' W 003°22'  

Dump ship's entire track history